Time;durP1;ratioP1;P1;durP2;ratioP2;P2;SDS_P1;SDS_P2;PMS_P1;PMS_P2;Temp;Humidity;BMP_temperature;BMP_pressure;BME280_temperature;BME280_humidity;BME280_pressure;Samples;Min_cycle;Max_cycle;Signal;HPM_P1;HPM_P2
2022/04/02 00:02:15;;;;;;;10.48;7.60;;;;;;;;;;6178004;23;20044;-53
2022/04/02 00:04:40;;;;;;;13.77;8.55;;;;;;;;;;6178856;23;20013;-48
2022/04/02 00:07:05;;;;;;;13.68;9.02;;;;;;;;;;6178916;23;20021;-51
2022/04/02 00:09:31;;;;;;;17.23;9.65;;;;;;;;;;6177205;23;20508;-50
2022/04/02 00:11:56;;;;;;;23.75;10.40;;;;;;;;;;6178765;23;20084;-51
2022/04/02 00:14:21;;;;;;;15.82;8.88;;;;;;;;;;6177464;23;20017;-52
2022/04/02 00:16:46;;;;;;;14.07;8.40;;;;;;;;;;6178163;23;20032;-49
2022/04/02 00:19:12;;;;;;;12.25;8.18;;;;;;;;;;6178450;23;20020;-52
2022/04/02 00:21:38;;;;;;;15.90;8.70;;;;;;;;;;6178397;23;20012;-51
2022/04/02 00:24:03;;;;;;;19.10;9.25;;;;;;;;;;6178035;23;20017;-52
2022/04/02 00:26:29;;;;;;;12.60;7.82;;;;;;;;;;6178473;23;20024;-52
2022/04/02 00:28:54;;;;;;;14.00;8.82;;;;;;;;;;6178009;23;20021;-52
2022/04/02 00:31:20;;;;;;;14.38;9.00;;;;;;;;;;6179013;23;20063;-49
2022/04/02 00:33:47;;;;;;;16.80;7.82;;;;;;;;;;6178194;23;20115;-53
2022/04/02 00:36:13;;;;;;;14.40;8.63;;;;;;;;;;6178865;23;20189;-53
2022/04/02 00:38:39;;;;;;;15.57;7.90;;;;;;;;;;6177228;23;20048;-49
2022/04/02 00:41:05;;;;;;;15.80;7.63;;;;;;;;;;6178284;23;20020;-53
2022/04/02 00:43:31;;;;;;;16.08;9.13;;;;;;;;;;6176689;23;20017;-54
2022/04/02 00:45:59;;;;;;;17.48;9.18;;;;;;;;;;6179103;23;20025;-54
2022/04/02 00:48:27;;;;;;;17.80;8.50;;;;;;;;;;6200548;23;20013;-51
2022/04/02 00:50:53;;;;;;;18.20;9.80;;;;;;;;;;6201996;23;20020;-49
2022/04/02 00:53:18;;;;;;;14.05;8.98;;;;;;;;;;6178106;23;20023;-53
2022/04/02 00:55:44;;;;;;;13.57;8.55;;;;;;;;;;6179095;23;20065;-51
2022/04/02 00:58:13;;;;;;;14.90;7.60;;;;;;;;;;6177381;23;20053;-50
2022/04/02 01:00:40;;;;;;;12.93;7.95;;;;;;;;;;6177320;23;20074;-51
2022/04/02 01:03:06;;;;;;;14.95;7.63;;;;;;;;;;6178582;23;20019;-50
2022/04/02 01:05:31;;;;;;;16.92;9.52;;;;;;;;;;6201495;23;20363;-49
2022/04/02 01:07:57;;;;;;;12.63;7.75;;;;;;;;;;6177868;23;20013;-50
2022/04/02 01:10:23;;;;;;;15.68;9.02;;;;;;;;;;6177716;23;20040;-53
2022/04/02 01:12:48;;;;;;;15.85;9.13;;;;;;;;;;6152126;23;20013;-52
2022/04/02 01:15:14;;;;;;;17.88;9.35;;;;;;;;;;6175582;23;20029;-50
2022/04/02 01:17:40;;;;;;;13.00;8.40;;;;;;;;;;6179516;23;20028;-50
2022/04/02 01:20:08;;;;;;;16.90;9.18;;;;;;;;;;6176921;23;20076;-50
2022/04/02 01:22:34;;;;;;;17.55;9.23;;;;;;;;;;6177470;23;20017;-51
2022/04/02 01:24:59;;;;;;;16.17;9.73;;;;;;;;;;6177543;23;20023;-51
2022/04/02 01:27:25;;;;;;;20.00;9.98;;;;;;;;;;6179026;23;20028;-48
2022/04/02 01:29:50;;;;;;;16.95;9.48;;;;;;;;;;6179010;23;20013;-50
2022/04/02 01:32:15;;;;;;;15.07;10.15;;;;;;;;;;6177283;23;20033;-51
2022/04/02 01:34:40;;;;;;;14.90;9.68;;;;;;;;;;6179752;23;20033;-49
2022/04/02 01:37:06;;;;;;;15.40;9.23;;;;;;;;;;6177565;23;20025;-50
2022/04/02 01:39:31;;;;;;;22.08;11.60;;;;;;;;;;6177322;23;20456;-51
2022/04/02 01:41:56;;;;;;;18.10;9.55;;;;;;;;;;6176095;23;20047;-50
2022/04/02 01:44:21;;;;;;;17.85;9.65;;;;;;;;;;6176983;23;20029;-51
2022/04/02 01:46:47;;;;;;;16.33;9.35;;;;;;;;;;6178235;23;20035;-52
2022/04/02 01:49:12;;;;;;;16.33;9.45;;;;;;;;;;6177490;23;20017;-52
2022/04/02 01:51:37;;;;;;;15.40;9.85;;;;;;;;;;6177529;23;20036;-49
2022/04/02 01:54:02;;;;;;;17.70;10.40;;;;;;;;;;6177918;23;20009;-47
2022/04/02 01:56:28;;;;;;;19.30;10.57;;;;;;;;;;6175558;23;20088;-51
2022/04/02 01:58:53;;;;;;;13.95;8.80;;;;;;;;;;6178753;23;20021;-51
2022/04/02 02:01:18;;;;;;;17.20;10.18;;;;;;;;;;6199220;23;20515;-49
2022/04/02 02:03:44;;;;;;;23.92;10.95;;;;;;;;;;6176712;23;20017;-51
2022/04/02 02:06:10;;;;;;;17.60;9.85;;;;;;;;;;6177228;23;20005;-47
2022/04/02 02:08:35;;;;;;;19.92;10.20;;;;;;;;;;6178348;23;20041;-50
2022/04/02 02:11:01;;;;;;;17.15;9.55;;;;;;;;;;6177796;23;20025;-48
2022/04/02 02:13:26;;;;;;;16.50;10.40;;;;;;;;;;6176823;23;20015;-50
2022/04/02 02:15:51;;;;;;;21.45;11.15;;;;;;;;;;6176482;23;20037;-48
2022/04/02 02:18:16;;;;;;;21.38;11.35;;;;;;;;;;6177249;23;20040;-50
2022/04/02 02:20:43;;;;;;;18.08;11.68;;;;;;;;;;6176683;23;20001;-48
2022/04/02 02:23:08;;;;;;;19.75;11.15;;;;;;;;;;6178767;23;20021;-49
2022/04/02 02:25:34;;;;;;;22.30;10.13;;;;;;;;;;6173728;23;20050;-48
2022/04/02 02:27:59;;;;;;;18.90;10.05;;;;;;;;;;6178492;23;20068;-50
2022/04/02 02:30:25;;;;;;;18.50;10.93;;;;;;;;;;6176670;23;20037;-51
2022/04/02 02:32:50;;;;;;;19.05;10.65;;;;;;;;;;6179157;23;20013;-49
2022/04/02 02:35:50;;;;;;;24.38;12.32;;;;;;;;;;6177946;23;20451;-48
2022/04/02 02:38:16;;;;;;;22.92;12.00;;;;;;;;;;6174523;23;20021;-50
2022/04/02 02:40:41;;;;;;;23.02;11.50;;;;;;;;;;6178978;23;20099;-49
2022/04/02 02:43:07;;;;;;;17.00;10.73;;;;;;;;;;6175410;23;20024;-53
2022/04/02 02:45:33;;;;;;;19.40;11.00;;;;;;;;;;6177733;23;20048;-50
2022/04/02 02:47:58;;;;;;;23.38;11.38;;;;;;;;;;6150656;23;20017;-49
2022/04/02 02:50:23;;;;;;;18.27;10.35;;;;;;;;;;6178209;23;20033;-49
2022/04/02 02:52:49;;;;;;;17.30;10.68;;;;;;;;;;6176286;23;20810;-49
2022/04/02 02:55:14;;;;;;;18.63;10.80;;;;;;;;;;6177175;23;20113;-53
2022/04/02 02:57:40;;;;;;;17.85;11.23;;;;;;;;;;6177176;23;20017;-51
2022/04/02 03:00:07;;;;;;;24.30;11.90;;;;;;;;;;6178131;23;20017;-50
2022/04/02 03:02:33;;;;;;;25.02;12.73;;;;;;;;;;6174485;23;20028;-50
2022/04/02 03:04:58;;;;;;;28.00;14.48;;;;;;;;;;6178359;23;20096;-52
2022/04/02 03:07:25;;;;;;;21.55;12.23;;;;;;;;;;6175265;23;20028;-48
2022/04/02 03:09:50;;;;;;;25.13;13.32;;;;;;;;;;6178677;23;20020;-48
2022/04/02 03:12:16;;;;;;;27.05;13.68;;;;;;;;;;6175579;23;20036;-50
2022/04/02 03:14:41;;;;;;;24.08;14.05;;;;;;;;;;6177741;23;20080;-49
2022/04/02 03:17:06;;;;;;;20.88;11.23;;;;;;;;;;6193825;23;20047;-49
2022/04/02 03:19:31;;;;;;;24.30;13.20;;;;;;;;;;6177567;23;20028;-53
2022/04/02 03:21:57;;;;;;;23.85;13.68;;;;;;;;;;6175052;23;20068;-49
2022/04/02 03:24:22;;;;;;;23.48;13.00;;;;;;;;;;6176918;23;20018;-48
2022/04/02 03:26:47;;;;;;;24.23;14.07;;;;;;;;;;6175183;23;20021;-49
2022/04/02 03:29:13;;;;;;;24.05;13.93;;;;;;;;;;6177532;23;20072;-50
2022/04/02 03:31:39;;;;;;;27.17;13.05;;;;;;;;;;6176819;23;20031;-50
2022/04/02 03:34:04;;;;;;;22.52;13.43;;;;;;;;;;6175018;23;20017;-49
2022/04/02 03:36:29;;;;;;;24.25;13.32;;;;;;;;;;6176690;23;20531;-51
2022/04/02 03:38:54;;;;;;;29.63;13.60;;;;;;;;;;6180075;23;20179;-50
2022/04/02 03:41:20;;;;;;;27.20;13.75;;;;;;;;;;6176311;23;20009;-53
2022/04/02 03:43:46;;;;;;;30.10;13.43;;;;;;;;;;6179711;23;20067;-49
2022/04/02 03:48:55;;;;;;;25.10;12.88;;;;;;;;;;6173715;23;20137;-50
2022/04/02 03:51:21;;;;;;;21.05;12.43;;;;;;;;;;6176350;23;20021;-48
2022/04/02 03:53:46;;;;;;;23.23;10.73;;;;;;;;;;6178529;23;20044;-51
2022/04/02 03:56:12;;;;;;;25.65;13.43;;;;;;;;;;6179533;23;20020;-51
2022/04/02 03:58:38;;;;;;;18.13;10.75;;;;;;;;;;6179116;23;20027;-49
2022/04/02 04:01:03;;;;;;;23.33;12.20;;;;;;;;;;6177989;23;20037;-49
2022/04/02 04:03:28;;;;;;;26.00;13.73;;;;;;;;;;6178769;23;20017;-49
2022/04/02 04:05:53;;;;;;;28.20;13.07;;;;;;;;;;6178571;23;20017;-48
2022/04/02 04:08:19;;;;;;;25.65;14.48;;;;;;;;;;6176079;23;20748;-53
2022/04/02 04:10:44;;;;;;;24.50;12.43;;;;;;;;;;6178148;23;20016;-49
2022/04/02 04:13:09;;;;;;;21.98;12.35;;;;;;;;;;6179827;23;20101;-50
2022/04/02 04:15:34;;;;;;;24.23;14.25;;;;;;;;;;6177126;23;20020;-48
2022/04/02 04:18:00;;;;;;;21.95;13.88;;;;;;;;;;6179231;23;20021;-53
2022/04/02 04:20:27;;;;;;;22.90;12.20;;;;;;;;;;6177287;23;20009;-50
2022/04/02 04:22:52;;;;;;;22.92;12.00;;;;;;;;;;6179173;23;20017;-52
2022/04/02 04:25:17;;;;;;;28.17;14.00;;;;;;;;;;6177573;23;20149;-51
2022/04/02 04:27:43;;;;;;;28.88;14.73;;;;;;;;;;6178029;23;20009;-52
2022/04/02 04:30:08;;;;;;;23.33;14.50;;;;;;;;;;6179226;23;20023;-49
2022/04/02 04:32:34;;;;;;;30.80;15.50;;;;;;;;;;6176609;23;20017;-49
2022/04/02 04:34:59;;;;;;;25.65;14.40;;;;;;;;;;6178570;23;20044;-49
2022/04/02 04:37:25;;;;;;;28.35;14.63;;;;;;;;;;6176535;23;20364;-49
2022/04/02 04:39:50;;;;;;;30.20;16.35;;;;;;;;;;6178514;23;20019;-50
2022/04/02 04:42:16;;;;;;;29.98;15.32;;;;;;;;;;6175516;23;20033;-49
2022/04/02 04:44:41;;;;;;;30.48;15.48;;;;;;;;;;6179166;23;20040;-48
2022/04/02 04:47:06;;;;;;;32.33;16.75;;;;;;;;;;6177469;23;20028;-49
2022/04/02 04:49:32;;;;;;;28.30;16.33;;;;;;;;;;6178567;23;20029;-49
2022/04/02 04:51:58;;;;;;;27.55;13.32;;;;;;;;;;6176918;23;20017;-49
2022/04/02 04:54:23;;;;;;;29.40;14.63;;;;;;;;;;6177573;23;20044;-52
2022/04/02 04:56:48;;;;;;;24.70;14.77;;;;;;;;;;6177702;23;20020;-49
2022/04/02 04:59:14;;;;;;;25.17;13.50;;;;;;;;;;6177870;23;20016;-50
2022/04/02 05:01:39;;;;;;;27.23;15.00;;;;;;;;;;6178992;23;20017;-49
2022/04/02 05:04:07;;;;;;;23.45;13.50;;;;;;;;;;6178026;23;20032;-49
2022/04/02 05:06:34;;;;;;;26.23;13.95;;;;;;;;;;6176538;23;20176;-52
2022/04/02 05:09:00;;;;;;;22.27;12.38;;;;;;;;;;6178553;23;20040;-47
2022/04/02 05:11:25;;;;;;;27.88;14.63;;;;;;;;;;6177835;23;20021;-47
2022/04/02 05:13:50;;;;;;;25.50;14.05;;;;;;;;;;6177741;23;20009;-49
2022/04/02 05:16:16;;;;;;;33.05;14.48;;;;;;;;;;6177692;23;20013;-50
2022/04/02 05:18:42;;;;;;;24.58;14.10;;;;;;;;;;6179288;23;20048;-48
2022/04/02 05:21:07;;;;;;;25.95;14.65;;;;;;;;;;6178395;23;20037;-50
2022/04/02 05:23:32;;;;;;;33.17;15.13;;;;;;;;;;6177264;23;20009;-54
2022/04/02 05:25:58;;;;;;;31.55;15.90;;;;;;;;;;6177187;23;20013;-50
2022/04/02 05:28:23;;;;;;;27.08;14.50;;;;;;;;;;6176751;23;20024;-53
2022/04/02 05:30:48;;;;;;;41.67;17.60;;;;;;;;;;6177966;23;20076;-51
2022/04/02 05:33:14;;;;;;;33.35;16.02;;;;;;;;;;6175375;23;20081;-53
2022/04/02 05:35:39;;;;;;;33.17;15.88;;;;;;;;;;6178411;23;20057;-51
2022/04/02 05:38:05;;;;;;;30.75;16.33;;;;;;;;;;6176296;23;20029;-50
2022/04/02 05:40:30;;;;;;;37.28;18.00;;;;;;;;;;6177384;23;20012;-49
2022/04/02 05:42:55;;;;;;;34.65;16.73;;;;;;;;;;6176540;23;20432;-50
2022/04/02 05:45:20;;;;;;;36.17;17.83;;;;;;;;;;6176236;23;20025;-50
2022/04/02 05:47:47;;;;;;;30.50;17.02;;;;;;;;;;6176046;23;20021;-48
2022/04/02 05:50:13;;;;;;;36.08;17.13;;;;;;;;;;6178259;23;20048;-51
2022/04/02 05:52:39;;;;;;;35.63;18.48;;;;;;;;;;6175909;23;20016;-52
2022/04/02 05:55:07;;;;;;;35.67;17.70;;;;;;;;;;6178029;23;20017;-53
2022/04/02 05:57:32;;;;;;;28.52;15.60;;;;;;;;;;6175580;23;20266;-50
2022/04/02 05:59:58;;;;;;;33.80;17.33;;;;;;;;;;6178797;23;20088;-52
2022/04/02 06:02:24;;;;;;;34.25;17.40;;;;;;;;;;6174354;23;20076;-51
2022/04/02 06:04:49;;;;;;;29.17;17.13;;;;;;;;;;6179864;23;20020;-52
2022/04/02 06:07:14;;;;;;;31.35;17.38;;;;;;;;;;6176364;23;20009;-49
2022/04/02 06:09:39;;;;;;;32.85;16.98;;;;;;;;;;6178653;23;20012;-53
2022/04/02 06:12:05;;;;;;;31.65;18.10;;;;;;;;;;6176684;23;20009;-53
2022/04/02 06:14:30;;;;;;;37.33;19.02;;;;;;;;;;6177726;23;20016;-52
2022/04/02 06:16:55;;;;;;;35.58;17.05;;;;;;;;;;6177947;23;20021;-51
2022/04/02 06:19:21;;;;;;;34.85;18.30;;;;;;;;;;6177836;23;20017;-50
2022/04/02 06:21:46;;;;;;;35.42;18.52;;;;;;;;;;6177276;23;20020;-51
2022/04/02 06:24:11;;;;;;;31.50;16.58;;;;;;;;;;6178119;23;20020;-50
2022/04/02 06:26:37;;;;;;;33.03;16.77;;;;;;;;;;6176295;23;20032;-53
2022/04/02 06:29:02;;;;;;;36.20;18.52;;;;;;;;;;6178290;23;20070;-48
2022/04/02 06:31:27;;;;;;;35.75;17.70;;;;;;;;;;6175880;23;20068;-52
2022/04/02 06:33:52;;;;;;;33.95;17.65;;;;;;;;;;6179038;23;20085;-48
2022/04/02 06:36:19;;;;;;;33.15;16.75;;;;;;;;;;6174293;23;20013;-49
2022/04/02 06:38:44;;;;;;;36.15;18.23;;;;;;;;;;6178621;23;20157;-48
2022/04/02 06:41:10;;;;;;;36.10;19.77;;;;;;;;;;6175911;23;20391;-51
2022/04/02 06:43:35;;;;;;;37.30;18.73;;;;;;;;;;6176454;23;20028;-54
2022/04/02 06:46:00;;;;;;;35.00;19.60;;;;;;;;;;6144632;23;20074;-49
2022/04/02 06:48:26;;;;;;;33.25;17.55;;;;;;;;;;6144986;23;20093;-51
2022/04/02 06:50:53;;;;;;;32.83;17.67;;;;;;;;;;6140041;23;20793;-50
2022/04/02 06:53:19;;;;;;;35.25;18.42;;;;;;;;;;6147332;23;20580;-48
2022/04/02 06:55:45;;;;;;;37.88;20.48;;;;;;;;;;6146570;23;20024;-52
2022/04/02 06:58:16;;;;;;;41.13;20.50;;;;;;;;;;6149080;23;20037;-49
2022/04/02 07:00:42;;;;;;;41.33;20.45;;;;;;;;;;6147002;23;20013;-48
2022/04/02 07:03:08;;;;;;;38.17;19.42;;;;;;;;;;6148391;23;20029;-50
2022/04/02 07:05:34;;;;;;;42.75;20.48;;;;;;;;;;6146427;23;20017;-51
2022/04/02 07:07:59;;;;;;;40.00;21.38;;;;;;;;;;6149342;23;20031;-51
2022/04/02 07:10:24;;;;;;;45.75;20.92;;;;;;;;;;6145752;23;20472;-54
2022/04/02 07:12:50;;;;;;;45.55;22.52;;;;;;;;;;6149548;23;20400;-52
2022/04/02 07:15:15;;;;;;;41.38;21.10;;;;;;;;;;6145950;23;20017;-52
2022/04/02 07:17:40;;;;;;;40.17;20.88;;;;;;;;;;6149349;23;20017;-53
2022/04/02 07:20:09;;;;;;;45.13;21.35;;;;;;;;;;6146903;23;20017;-52
2022/04/02 07:22:35;;;;;;;39.97;18.45;;;;;;;;;;6148214;23;20052;-52
2022/04/02 07:25:00;;;;;;;46.55;21.10;;;;;;;;;;6147509;23;20021;-52
2022/04/02 07:27:27;;;;;;;41.83;21.08;;;;;;;;;;6147644;23;20044;-49
2022/04/02 07:29:53;;;;;;;47.42;21.05;;;;;;;;;;6146292;23;20018;-53
2022/04/02 07:32:19;;;;;;;43.25;18.48;;;;;;;;;;6147898;23;20092;-50
2022/04/02 07:34:44;;;;;;;39.85;20.00;;;;;;;;;;6146376;23;20033;-52
2022/04/02 07:37:28;;;;;;;39.35;20.13;;;;;;;;;;6148508;23;20029;-51
2022/04/02 07:39:58;;;;;;;41.92;18.40;;;;;;;;;;6148226;23;20068;-49
2022/04/02 07:42:37;;;;;;;38.97;18.15;;;;;;;;;;6145245;23;20057;-52
2022/04/02 07:45:04;;;;;;;37.70;17.70;;;;;;;;;;6154134;23;20049;-51
2022/04/02 07:47:37;;;;;;;41.90;20.05;;;;;;;;;;6148679;23;20017;-48
2022/04/02 07:50:06;;;;;;;33.65;17.48;;;;;;;;;;6177510;23;20025;-49
2022/04/02 07:52:32;;;;;;;36.50;17.80;;;;;;;;;;6175006;23;20032;-49
2022/04/02 07:55:00;;;;;;;38.33;18.63;;;;;;;;;;6175205;23;20017;-51
2022/04/02 07:57:33;;;;;;;31.70;16.45;;;;;;;;;;6175064;23;20024;-52
2022/04/02 08:00:00;;;;;;;36.28;18.10;;;;;;;;;;6176920;23;20048;-49
2022/04/02 08:02:38;;;;;;;28.35;15.05;;;;;;;;;;6173492;23;20024;-53
2022/04/02 08:05:06;;;;;;;35.80;18.52;;;;;;;;;;6176002;23;20009;-50
2022/04/02 08:07:31;;;;;;;28.15;15.43;;;;;;;;;;6175924;23;20476;-49
2022/04/02 08:09:57;;;;;;;41.88;19.00;;;;;;;;;;6177271;23;20074;-53
2022/04/02 08:12:23;;;;;;;35.53;16.08;;;;;;;;;;6176020;23;20040;-52
2022/04/02 08:14:50;;;;;;;29.50;16.08;;;;;;;;;;6178333;23;20088;-52
2022/04/02 08:17:15;;;;;;;35.45;18.70;;;;;;;;;;6149144;23;20029;-53
2022/04/02 08:19:41;;;;;;;39.35;19.58;;;;;;;;;;6180592;23;20419;-54
2022/04/02 08:22:06;;;;;;;35.45;17.38;;;;;;;;;;6177993;23;20013;-51
2022/04/02 08:24:32;;;;;;;36.25;17.67;;;;;;;;;;6171028;23;20156;-53
2022/04/02 08:26:57;;;;;;;32.10;16.83;;;;;;;;;;6170852;23;20048;-49
2022/04/02 08:29:26;;;;;;;35.65;17.25;;;;;;;;;;6175685;23;20108;-53
2022/04/02 08:31:57;;;;;;;28.50;16.15;;;;;;;;;;6174131;23;20112;-53
2022/04/02 08:34:25;;;;;;;33.55;17.98;;;;;;;;;;6174737;23;20017;-52
2022/04/02 08:37:11;;;;;;;34.75;18.55;;;;;;;;;;6175992;23;20009;-52
2022/04/02 08:39:39;;;;;;;34.63;17.15;;;;;;;;;;6177883;23;20032;-51
2022/04/02 08:42:14;;;;;;;32.47;16.45;;;;;;;;;;6175895;23;20017;-50
2022/04/02 08:44:39;;;;;;;35.78;17.42;;;;;;;;;;6178560;23;20015;-51
2022/04/02 08:47:07;;;;;;;33.60;14.50;;;;;;;;;;6176603;23;20045;-53
2022/04/02 08:49:36;;;;;;;33.78;14.90;;;;;;;;;;6176871;23;20515;-51
2022/04/02 08:52:16;;;;;;;33.42;15.73;;;;;;;;;;6177465;23;20077;-50
2022/04/02 08:54:51;;;;;;;31.38;17.40;;;;;;;;;;6177572;23;20084;-48
2022/04/02 08:57:31;;;;;;;32.97;16.38;;;;;;;;;;6172379;23;20021;-51
2022/04/02 08:59:59;;;;;;;24.92;13.30;;;;;;;;;;6179183;23;20016;-48
2022/04/02 09:02:45;;;;;;;29.27;13.75;;;;;;;;;;6173207;23;20013;-49
2022/04/02 09:05:22;;;;;;;30.58;15.73;;;;;;;;;;6178584;23;20568;-50
2022/04/02 09:07:50;;;;;;;30.52;14.73;;;;;;;;;;6179113;23;20064;-51
2022/04/02 09:10:34;;;;;;;31.90;14.25;;;;;;;;;;6177023;23;20164;-55
2022/04/02 09:13:18;;;;;;;23.25;13.25;;;;;;;;;;6202744;23;20088;-50
2022/04/02 09:16:00;;;;;;;26.40;14.45;;;;;;;;;;6178690;23;20013;-52
2022/04/02 09:18:38;;;;;;;27.55;12.70;;;;;;;;;;6176997;23;20044;-50
2022/04/02 09:21:22;;;;;;;29.85;14.43;;;;;;;;;;6176298;23;20482;-49
2022/04/02 09:23:53;;;;;;;21.80;11.95;;;;;;;;;;6178234;23;20013;-50
2022/04/02 09:26:19;;;;;;;27.05;12.82;;;;;;;;;;6176199;23;20017;-53
2022/04/02 09:28:44;;;;;;;26.83;13.70;;;;;;;;;;6177238;23;20035;-51
2022/04/02 09:31:28;;;;;;;26.17;12.05;;;;;;;;;;6176810;23;20112;-49
2022/04/02 09:34:05;;;;;;;23.90;12.55;;;;;;;;;;6178613;23;20036;-50
2022/04/02 09:36:59;;;;;;;18.33;8.52;;;;;;;;;;6178191;23;20076;-49
2022/04/02 09:39:31;;;;;;;16.20;7.13;;;;;;;;;;6164125;23;20081;-53
2022/04/02 09:42:09;;;;;;;16.52;7.93;;;;;;;;;;6178798;23;20015;-51
2022/04/02 09:45:00;;;;;;;15.35;7.10;;;;;;;;;;6198289;23;20014;-53
2022/04/02 09:47:31;;;;;;;11.57;7.18;;;;;;;;;;6168730;23;20025;-51
2022/04/02 09:49:57;;;;;;;14.70;7.25;;;;;;;;;;6178221;23;20048;-50
2022/04/02 09:52:24;;;;;;;12.13;6.60;;;;;;;;;;6176448;23;20016;-52
2022/04/02 09:55:09;;;;;;;10.32;5.57;;;;;;;;;;6202098;23;20017;-49
2022/04/02 09:57:36;;;;;;;13.82;6.10;;;;;;;;;;6176876;23;20032;-47
2022/04/02 10:00:06;;;;;;;12.05;6.82;;;;;;;;;;6178834;23;20017;-49
2022/04/02 10:02:57;;;;;;;11.77;5.88;;;;;;;;;;6170037;23;20021;-50
2022/04/02 10:05:24;;;;;;;24.90;7.50;;;;;;;;;;6161552;23;20959;-50
2022/04/02 10:07:54;;;;;;;8.75;5.57;;;;;;;;;;6175221;23;20013;-50
2022/04/02 10:10:25;;;;;;;8.10;3.80;;;;;;;;;;6171810;23;20467;-48
2022/04/02 10:12:52;;;;;;;5.88;3.17;;;;;;;;;;6174104;23;20013;-48
2022/04/02 10:15:19;;;;;;;10.68;3.83;;;;;;;;;;6172284;23;20020;-49
2022/04/02 10:17:50;;;;;;;8.50;4.35;;;;;;;;;;6173535;23;20028;-49
2022/04/02 10:20:18;;;;;;;6.25;3.70;;;;;;;;;;6172436;23;20020;-50
2022/04/02 10:22:44;;;;;;;17.80;3.95;;;;;;;;;;6170397;23;20311;-51
2022/04/02 10:25:11;;;;;;;7.82;3.95;;;;;;;;;;6168753;23;20577;-51
2022/04/02 10:27:37;;;;;;;10.60;4.90;;;;;;;;;;6168700;23;20016;-47
2022/04/02 10:30:02;;;;;;;5.45;3.85;;;;;;;;;;6174427;23;20043;-48
2022/04/02 10:32:27;;;;;;;8.60;4.50;;;;;;;;;;6172354;23;20780;-49
2022/04/02 10:35:01;;;;;;;8.73;3.97;;;;;;;;;;6175901;23;20075;-52
2022/04/02 10:37:30;;;;;;;11.10;5.30;;;;;;;;;;6174476;23;20032;-48
2022/04/02 10:40:03;;;;;;;8.43;5.13;;;;;;;;;;6178029;23;20020;-51
2022/04/02 10:42:49;;;;;;;11.40;5.65;;;;;;;;;;6174445;23;20437;-48
2022/04/02 10:45:16;;;;;;;8.52;4.75;;;;;;;;;;6176523;23;20029;-50
2022/04/02 10:47:43;;;;;;;6.63;4.22;;;;;;;;;;6174594;23;20049;-52
2022/04/02 10:50:09;;;;;;;8.90;4.28;;;;;;;;;;6173026;23;20080;-50
2022/04/02 10:52:35;;;;;;;10.68;5.75;;;;;;;;;;6171916;23;20042;-48
2022/04/02 10:55:01;;;;;;;7.93;4.35;;;;;;;;;;6177333;23;20024;-52
2022/04/02 10:57:27;;;;;;;6.55;3.92;;;;;;;;;;6172990;23;20403;-50
2022/04/02 10:59:58;;;;;;;6.68;4.15;;;;;;;;;;6177832;23;20028;-50
2022/04/02 11:02:24;;;;;;;4.50;2.90;;;;;;;;;;6173869;23;20075;-50
2022/04/02 11:05:02;;;;;;;4.95;2.47;;;;;;;;;;6178000;23;20009;-47
2022/04/02 11:07:31;;;;;;;2.80;1.92;;;;;;;;;;6175288;23;20017;-49
2022/04/02 11:09:57;;;;;;;5.32;3.30;;;;;;;;;;6177598;23;20096;-47
2022/04/02 11:12:27;;;;;;;6.10;3.40;;;;;;;;;;6176150;23;20021;-47
2022/04/02 11:14:53;;;;;;;7.85;4.05;;;;;;;;;;6175689;23;20045;-51
2022/04/02 11:17:29;;;;;;;6.10;3.08;;;;;;;;;;6176517;23;20096;-47
2022/04/02 11:20:21;;;;;;;2.22;1.40;;;;;;;;;;6175870;23;20021;-50
2022/04/02 11:22:59;;;;;;;4.78;2.83;;;;;;;;;;6170470;23;20024;-48
2022/04/02 11:25:36;;;;;;;6.65;2.40;;;;;;;;;;6176341;23;20021;-49
2022/04/02 11:28:05;;;;;;;4.97;2.03;;;;;;;;;;6174904;23;20055;-49
2022/04/02 11:30:34;;;;;;;4.65;2.33;;;;;;;;;;6177009;23;20032;-49
2022/04/02 11:33:04;;;;;;;2.38;2.13;;;;;;;;;;6175555;23;20093;-49
2022/04/02 11:35:31;;;;;;;2.90;2.28;;;;;;;;;;6176304;23;20017;-50
2022/04/02 11:38:23;;;;;;;3.17;2.08;;;;;;;;;;6173301;23;20055;-48
2022/04/02 11:40:55;;;;;;;4.25;1.88;;;;;;;;;;6161872;23;20017;-51
2022/04/02 11:43:29;;;;;;;2.00;1.67;;;;;;;;;;6176029;23;20060;-50
2022/04/02 11:45:57;;;;;;;3.50;1.77;;;;;;;;;;6146043;23;20428;-52
2022/04/02 11:48:28;;;;;;;4.88;2.15;;;;;;;;;;6168343;23;20028;-50
2022/04/02 11:50:54;;;;;;;7.10;3.08;;;;;;;;;;6172809;23;20476;-49
2022/04/02 11:53:28;;;;;;;11.98;3.17;;;;;;;;;;6178365;23;20013;-50
2022/04/02 11:55:53;;;;;;;7.28;2.70;;;;;;;;;;6175545;23;20019;-54
2022/04/02 11:58:19;;;;;;;5.50;2.45;;;;;;;;;;6179524;23;20060;-50
2022/04/02 12:00:44;;;;;;;3.92;1.90;;;;;;;;;;6164439;23;20040;-53
2022/04/02 12:03:23;;;;;;;4.45;2.10;;;;;;;;;;6155049;23;20013;-55
2022/04/02 12:05:49;;;;;;;7.80;2.28;;;;;;;;;;6172474;23;20040;-49
2022/04/02 12:08:26;;;;;;;5.93;1.65;;;;;;;;;;6166198;23;20017;-54
2022/04/02 12:10:51;;;;;;;4.00;1.83;;;;;;;;;;6166064;23;20709;-50
2022/04/02 12:13:17;;;;;;;6.32;1.88;;;;;;;;;;6169806;23;20069;-52
2022/04/02 12:16:01;;;;;;;3.08;1.88;;;;;;;;;;6170715;23;20001;-52
2022/04/02 12:18:27;;;;;;;4.32;1.75;;;;;;;;;;6168130;23;20028;-53
2022/04/02 12:20:59;;;;;;;2.30;1.63;;;;;;;;;;6167811;23;20052;-50
2022/04/02 12:23:25;;;;;;;3.28;1.50;;;;;;;;;;6164124;23;20017;-51
2022/04/02 12:25:54;;;;;;;3.58;1.73;;;;;;;;;;6166542;23;20023;-49
2022/04/02 12:28:20;;;;;;;2.10;1.48;;;;;;;;;;6162707;23;20017;-52
2022/04/02 12:30:48;;;;;;;3.00;1.25;;;;;;;;;;6167860;23;20006;-54
2022/04/02 12:33:15;;;;;;;0.95;0.82;;;;;;;;;;6168210;23;20021;-54
2022/04/02 12:35:44;;;;;;;3.78;1.27;;;;;;;;;;6142453;23;20028;-53
2022/04/02 12:38:21;;;;;;;2.92;1.45;;;;;;;;;;6170756;23;20455;-52
2022/04/02 12:40:47;;;;;;;6.75;1.10;;;;;;;;;;6168017;23;20247;-51
2022/04/02 12:43:13;;;;;;;5.22;1.60;;;;;;;;;;6170598;23;20028;-52
2022/04/02 12:45:38;;;;;;;2.05;1.40;;;;;;;;;;6160963;23;20056;-51
2022/04/02 12:48:05;;;;;;;3.75;1.83;;;;;;;;;;6170492;23;20009;-52
2022/04/02 12:50:33;;;;;;;7.32;1.70;;;;;;;;;;6167303;23;20028;-49
2022/04/02 12:52:59;;;;;;;4.70;1.70;;;;;;;;;;6167063;23;20017;-49
2022/04/02 12:55:25;;;;;;;1.98;1.45;;;;;;;;;;6167477;23;20016;-49
2022/04/02 12:57:58;;;;;;;2.10;1.30;;;;;;;;;;6170034;23;20036;-51
2022/04/02 13:00:25;;;;;;;2.08;1.23;;;;;;;;;;6192082;23;20025;-52
2022/04/02 13:02:54;;;;;;;2.28;1.70;;;;;;;;;;6170267;23;20017;-53
2022/04/02 13:05:20;;;;;;;3.22;1.52;;;;;;;;;;6150089;23;20024;-50
2022/04/02 13:08:03;;;;;;;4.72;1.73;;;;;;;;;;6174979;23;20013;-54
2022/04/02 13:10:29;;;;;;;1.77;1.35;;;;;;;;;;6175684;23;20013;-50
2022/04/02 13:12:58;;;;;;;4.93;2.03;;;;;;;;;;6179861;23;20028;-53
2022/04/02 13:15:25;;;;;;;3.90;1.55;;;;;;;;;;6169793;23;20439;-48
2022/04/02 13:20:36;;;;;;;4.70;1.73;;;;;;;;;;6172543;23;20044;-49
2022/04/02 13:23:01;;;;;;;3.80;1.73;;;;;;;;;;6142526;23;20009;-50
2022/04/02 13:25:29;;;;;;;2.90;2.13;;;;;;;;;;6169317;23;20344;-48
2022/04/02 13:28:14;;;;;;;4.80;2.13;;;;;;;;;;6167329;23;20039;-48
2022/04/02 13:30:41;;;;;;;3.45;1.98;;;;;;;;;;6162833;23;20013;-52
2022/04/02 13:33:09;;;;;;;2.33;2.13;;;;;;;;;;6165065;23;20009;-53
2022/04/02 13:35:41;;;;;;;7.80;2.33;;;;;;;;;;6169985;23;20017;-51
2022/04/02 13:38:15;;;;;;;4.13;2.88;;;;;;;;;;6167174;23;20029;-50
2022/04/02 13:40:44;;;;;;;2.30;1.90;;;;;;;;;;6192890;23;20020;-51
2022/04/02 13:43:09;;;;;;;3.30;2.50;;;;;;;;;;6167793;23;20365;-52
2022/04/02 13:45:46;;;;;;;1.83;1.58;;;;;;;;;;6169837;23;20032;-49
2022/04/02 13:48:14;;;;;;;1.90;1.75;;;;;;;;;;6167993;23;20019;-49
2022/04/02 13:50:43;;;;;;;2.58;1.60;;;;;;;;;;6169425;23;20070;-51
2022/04/02 13:53:09;;;;;;;10.60;2.47;;;;;;;;;;6168107;23;20020;-52
2022/04/02 13:55:37;;;;;;;2.72;2.03;;;;;;;;;;6169844;23;20024;-51
2022/04/02 13:58:09;;;;;;;2.38;1.42;;;;;;;;;;6141964;23;20021;-54
2022/04/02 14:00:37;;;;;;;2.85;0.90;;;;;;;;;;6168598;23;20013;-49
2022/04/02 14:03:04;;;;;;;3.08;1.17;;;;;;;;;;6189955;23;20013;-51
2022/04/02 14:05:31;;;;;;;2.50;1.00;;;;;;;;;;6161539;23;20096;-52
2022/04/02 14:08:14;;;;;;;2.00;1.02;;;;;;;;;;6162967;23;20013;-50
2022/04/02 14:10:50;;;;;;;2.75;1.10;;;;;;;;;;6160300;23;20013;-52
2022/04/02 14:13:16;;;;;;;3.75;1.48;;;;;;;;;;6161427;23;20048;-52
2022/04/02 14:15:55;;;;;;;3.05;1.33;;;;;;;;;;6161246;23;20009;-53
2022/04/02 14:18:24;;;;;;;1.87;1.13;;;;;;;;;;6159662;23;20029;-51
2022/04/02 14:20:51;;;;;;;5.60;1.90;;;;;;;;;;6161595;23;20077;-52
2022/04/02 14:23:23;;;;;;;3.08;1.38;;;;;;;;;;6160747;23;20009;-51
2022/04/02 14:26:07;;;;;;;4.38;0.85;;;;;;;;;;6160074;23;20028;-49
2022/04/02 14:28:44;;;;;;;7.13;1.42;;;;;;;;;;6169284;23;20021;-50
2022/04/02 14:31:10;;;;;;;2.38;1.67;;;;;;;;;;6167286;23;20024;-50
2022/04/02 14:33:53;;;;;;;2.65;1.30;;;;;;;;;;6169594;23;20116;-53
2022/04/02 14:36:37;;;;;;;2.58;1.50;;;;;;;;;;6168449;23;20021;-51
2022/04/02 14:39:03;;;;;;;1.67;1.10;;;;;;;;;;6164595;23;20028;-53